sensor_id;sensor_type;location;lat;lon;timestamp;P1;durP1;ratioP1;P2;durP2;ratioP2
16735;SDS011;17990;49.548;9.730;2024-01-07T00:01:47;16.70;;;10.57;;
16735;SDS011;17990;49.548;9.730;2024-01-07T00:04:15;17.83;;;11.70;;
16735;SDS011;17990;49.548;9.730;2024-01-07T00:06:42;13.40;;;9.13;;
16735;SDS011;17990;49.548;9.730;2024-01-07T00:09:11;13.60;;;8.13;;
16735;SDS011;17990;49.548;9.730;2024-01-07T00:11:38;14.43;;;6.70;;
16735;SDS011;17990;49.548;9.730;2024-01-07T00:14:05;9.87;;;7.00;;
16735;SDS011;17990;49.548;9.730;2024-01-07T00:16:32;11.70;;;7.17;;
16735;SDS011;17990;49.548;9.730;2024-01-07T00:18:59;16.13;;;6.90;;
16735;SDS011;17990;49.548;9.730;2024-01-07T00:21:26;9.87;;;6.40;;
16735;SDS011;17990;49.548;9.730;2024-01-07T00:23:53;14.97;;;6.70;;
16735;SDS011;17990;49.548;9.730;2024-01-07T00:26:21;11.90;;;6.60;;
16735;SDS011;17990;49.548;9.730;2024-01-07T00:28:47;10.13;;;6.67;;
16735;SDS011;17990;49.548;9.730;2024-01-07T00:31:14;12.30;;;7.83;;
16735;SDS011;17990;49.548;9.730;2024-01-07T00:33:41;11.93;;;7.07;;
16735;SDS011;17990;49.548;9.730;2024-01-07T00:36:08;12.20;;;7.67;;
16735;SDS011;17990;49.548;9.730;2024-01-07T00:38:34;11.57;;;7.07;;
16735;SDS011;17990;49.548;9.730;2024-01-07T00:41:01;13.57;;;8.57;;
16735;SDS011;17990;49.548;9.730;2024-01-07T00:43:29;12.50;;;7.90;;
16735;SDS011;17990;49.548;9.730;2024-01-07T00:45:56;15.17;;;8.43;;
16735;SDS011;17990;49.548;9.730;2024-01-07T00:48:23;12.30;;;6.63;;
16735;SDS011;17990;49.548;9.730;2024-01-07T00:50:49;14.30;;;7.90;;
16735;SDS011;17990;49.548;9.730;2024-01-07T00:53:16;10.17;;;6.77;;
16735;SDS011;17990;49.548;9.730;2024-01-07T00:55:43;12.63;;;7.27;;
16735;SDS011;17990;49.548;9.730;2024-01-07T00:58:10;10.60;;;7.10;;
16735;SDS011;17990;49.548;9.730;2024-01-07T01:00:38;11.20;;;6.80;;
16735;SDS011;17990;49.548;9.730;2024-01-07T01:03:04;11.70;;;6.93;;
16735;SDS011;17990;49.548;9.730;2024-01-07T01:05:31;10.40;;;6.90;;
16735;SDS011;17990;49.548;9.730;2024-01-07T01:07:58;14.03;;;7.10;;
16735;SDS011;17990;49.548;9.730;2024-01-07T01:10:24;9.73;;;6.70;;
16735;SDS011;17990;49.548;9.730;2024-01-07T01:12:51;16.10;;;8.43;;
16735;SDS011;17990;49.548;9.730;2024-01-07T01:15:19;12.80;;;7.73;;
16735;SDS011;17990;49.548;9.730;2024-01-07T01:17:47;13.03;;;8.03;;
16735;SDS011;17990;49.548;9.730;2024-01-07T01:20:14;12.80;;;7.77;;
16735;SDS011;17990;49.548;9.730;2024-01-07T01:22:40;13.43;;;8.07;;
16735;SDS011;17990;49.548;9.730;2024-01-07T01:25:07;15.23;;;8.43;;
16735;SDS011;17990;49.548;9.730;2024-01-07T01:27:35;10.60;;;7.70;;
16735;SDS011;17990;49.548;9.730;2024-01-07T01:30:02;14.07;;;7.67;;
16735;SDS011;17990;49.548;9.730;2024-01-07T01:32:29;11.43;;;7.50;;
16735;SDS011;17990;49.548;9.730;2024-01-07T01:34:57;10.60;;;7.37;;
16735;SDS011;17990;49.548;9.730;2024-01-07T01:37:23;10.87;;;7.70;;
16735;SDS011;17990;49.548;9.730;2024-01-07T01:39:50;10.77;;;7.80;;
16735;SDS011;17990;49.548;9.730;2024-01-07T01:42:17;11.37;;;7.33;;
16735;SDS011;17990;49.548;9.730;2024-01-07T01:44:46;9.83;;;6.87;;
16735;SDS011;17990;49.548;9.730;2024-01-07T01:47:12;10.50;;;6.97;;
16735;SDS011;17990;49.548;9.730;2024-01-07T01:49:39;10.70;;;7.10;;
16735;SDS011;17990;49.548;9.730;2024-01-07T01:52:08;11.67;;;7.40;;
16735;SDS011;17990;49.548;9.730;2024-01-07T01:54:35;17.07;;;7.87;;
16735;SDS011;17990;49.548;9.730;2024-01-07T01:57:02;13.70;;;7.77;;
16735;SDS011;17990;49.548;9.730;2024-01-07T01:59:29;12.47;;;7.30;;
16735;SDS011;17990;49.548;9.730;2024-01-07T02:01:57;10.93;;;7.53;;
16735;SDS011;17990;49.548;9.730;2024-01-07T02:04:23;15.13;;;7.77;;
16735;SDS011;17990;49.548;9.730;2024-01-07T02:06:50;14.13;;;7.80;;
16735;SDS011;17990;49.548;9.730;2024-01-07T02:09:18;12.73;;;7.93;;
16735;SDS011;17990;49.548;9.730;2024-01-07T02:11:59;12.80;;;7.57;;
16735;SDS011;17990;49.548;9.730;2024-01-07T02:14:27;10.90;;;6.83;;
16735;SDS011;17990;49.548;9.730;2024-01-07T02:16:53;11.13;;;6.93;;
16735;SDS011;17990;49.548;9.730;2024-01-07T02:19:20;14.03;;;7.83;;
16735;SDS011;17990;49.548;9.730;2024-01-07T02:21:49;9.73;;;7.03;;
16735;SDS011;17990;49.548;9.730;2024-01-07T02:24:18;9.90;;;7.13;;
16735;SDS011;17990;49.548;9.730;2024-01-07T02:26:45;10.40;;;7.17;;
16735;SDS011;17990;49.548;9.730;2024-01-07T02:29:12;11.23;;;7.40;;
16735;SDS011;17990;49.548;9.730;2024-01-07T02:31:38;11.40;;;7.60;;
16735;SDS011;17990;49.548;9.730;2024-01-07T02:34:05;11.23;;;7.17;;
16735;SDS011;17990;49.548;9.730;2024-01-07T02:36:32;11.73;;;7.87;;
16735;SDS011;17990;49.548;9.730;2024-01-07T02:38:58;13.00;;;7.23;;
16735;SDS011;17990;49.548;9.730;2024-01-07T02:41:26;10.90;;;7.13;;
16735;SDS011;17990;49.548;9.730;2024-01-07T02:43:53;13.00;;;7.03;;
16735;SDS011;17990;49.548;9.730;2024-01-07T02:46:19;11.63;;;7.63;;
16735;SDS011;17990;49.548;9.730;2024-01-07T02:48:46;12.80;;;7.60;;
16735;SDS011;17990;49.548;9.730;2024-01-07T02:51:13;13.53;;;7.30;;
16735;SDS011;17990;49.548;9.730;2024-01-07T02:53:39;13.57;;;7.43;;
16735;SDS011;17990;49.548;9.730;2024-01-07T02:56:06;13.90;;;7.80;;
16735;SDS011;17990;49.548;9.730;2024-01-07T02:58:35;12.03;;;7.33;;
16735;SDS011;17990;49.548;9.730;2024-01-07T03:01:02;10.37;;;7.10;;
16735;SDS011;17990;49.548;9.730;2024-01-07T03:03:34;12.37;;;7.90;;
16735;SDS011;17990;49.548;9.730;2024-01-07T03:06:01;11.07;;;7.43;;
16735;SDS011;17990;49.548;9.730;2024-01-07T03:08:28;10.40;;;7.40;;
16735;SDS011;17990;49.548;9.730;2024-01-07T03:10:54;15.67;;;7.90;;
16735;SDS011;17990;49.548;9.730;2024-01-07T03:13:21;12.03;;;7.87;;
16735;SDS011;17990;49.548;9.730;2024-01-07T03:15:49;11.27;;;6.97;;
16735;SDS011;17990;49.548;9.730;2024-01-07T03:18:16;13.07;;;7.63;;
16735;SDS011;17990;49.548;9.730;2024-01-07T03:20:43;10.40;;;7.10;;
16735;SDS011;17990;49.548;9.730;2024-01-07T03:23:10;11.00;;;7.53;;
16735;SDS011;17990;49.548;9.730;2024-01-07T03:25:37;10.93;;;7.07;;
16735;SDS011;17990;49.548;9.730;2024-01-07T03:28:04;11.53;;;7.03;;
16735;SDS011;17990;49.548;9.730;2024-01-07T03:30:31;10.03;;;6.90;;
16735;SDS011;17990;49.548;9.730;2024-01-07T03:32:59;11.37;;;7.23;;
16735;SDS011;17990;49.548;9.730;2024-01-07T03:35:27;12.57;;;7.20;;
16735;SDS011;17990;49.548;9.730;2024-01-07T03:37:54;10.87;;;7.37;;
16735;SDS011;17990;49.548;9.730;2024-01-07T03:40:20;11.13;;;6.77;;
16735;SDS011;17990;49.548;9.730;2024-01-07T03:42:47;12.57;;;7.20;;
16735;SDS011;17990;49.548;9.730;2024-01-07T03:45:14;10.87;;;7.17;;
16735;SDS011;17990;49.548;9.730;2024-01-07T03:47:41;10.10;;;7.13;;
16735;SDS011;17990;49.548;9.730;2024-01-07T03:50:09;10.13;;;7.37;;
16735;SDS011;17990;49.548;9.730;2024-01-07T03:52:36;11.27;;;7.07;;
16735;SDS011;17990;49.548;9.730;2024-01-07T03:55:03;9.63;;;6.97;;
16735;SDS011;17990;49.548;9.730;2024-01-07T03:57:31;13.33;;;6.77;;
16735;SDS011;17990;49.548;9.730;2024-01-07T04:00:00;11.03;;;7.10;;
16735;SDS011;17990;49.548;9.730;2024-01-07T04:02:27;10.33;;;7.10;;
16735;SDS011;17990;49.548;9.730;2024-01-07T04:04:54;10.53;;;6.50;;
16735;SDS011;17990;49.548;9.730;2024-01-07T04:07:22;12.47;;;6.87;;
16735;SDS011;17990;49.548;9.730;2024-01-07T04:09:49;11.10;;;6.60;;
16735;SDS011;17990;49.548;9.730;2024-01-07T04:12:16;8.33;;;6.03;;
16735;SDS011;17990;49.548;9.730;2024-01-07T04:14:42;10.00;;;5.57;;
16735;SDS011;17990;49.548;9.730;2024-01-07T04:17:09;8.13;;;5.67;;
16735;SDS011;17990;49.548;9.730;2024-01-07T04:19:36;7.53;;;4.97;;
16735;SDS011;17990;49.548;9.730;2024-01-07T04:22:04;6.27;;;4.57;;
16735;SDS011;17990;49.548;9.730;2024-01-07T04:24:32;7.53;;;4.80;;
16735;SDS011;17990;49.548;9.730;2024-01-07T04:26:58;8.60;;;5.17;;
16735;SDS011;17990;49.548;9.730;2024-01-07T04:29:25;6.77;;;4.50;;
16735;SDS011;17990;49.548;9.730;2024-01-07T04:31:52;6.40;;;4.30;;
16735;SDS011;17990;49.548;9.730;2024-01-07T04:34:18;9.63;;;4.40;;
16735;SDS011;17990;49.548;9.730;2024-01-07T04:36:45;7.50;;;4.47;;
16735;SDS011;17990;49.548;9.730;2024-01-07T04:39:12;7.50;;;4.13;;
16735;SDS011;17990;49.548;9.730;2024-01-07T04:41:41;9.67;;;4.20;;
16735;SDS011;17990;49.548;9.730;2024-01-07T04:44:07;7.53;;;4.97;;
16735;SDS011;17990;49.548;9.730;2024-01-07T04:46:34;5.77;;;4.13;;
16735;SDS011;17990;49.548;9.730;2024-01-07T04:49:04;7.80;;;4.70;;
16735;SDS011;17990;49.548;9.730;2024-01-07T04:51:31;6.67;;;4.83;;
16735;SDS011;17990;49.548;9.730;2024-01-07T04:53:58;7.97;;;4.57;;
16735;SDS011;17990;49.548;9.730;2024-01-07T04:56:25;5.13;;;4.13;;
16735;SDS011;17990;49.548;9.730;2024-01-07T04:58:53;7.50;;;4.93;;
16735;SDS011;17990;49.548;9.730;2024-01-07T05:01:20;8.63;;;5.07;;
16735;SDS011;17990;49.548;9.730;2024-01-07T05:03:47;6.53;;;4.90;;
16735;SDS011;17990;49.548;9.730;2024-01-07T05:06:14;7.83;;;5.03;;
16735;SDS011;17990;49.548;9.730;2024-01-07T05:08:41;10.93;;;5.10;;
16735;SDS011;17990;49.548;9.730;2024-01-07T05:11:08;8.23;;;4.90;;
16735;SDS011;17990;49.548;9.730;2024-01-07T05:13:36;6.23;;;4.80;;
16735;SDS011;17990;49.548;9.730;2024-01-07T05:16:04;6.40;;;4.40;;
16735;SDS011;17990;49.548;9.730;2024-01-07T05:18:31;8.33;;;4.77;;
16735;SDS011;17990;49.548;9.730;2024-01-07T05:20:58;6.90;;;4.47;;
16735;SDS011;17990;49.548;9.730;2024-01-07T05:23:25;7.27;;;4.40;;
16735;SDS011;17990;49.548;9.730;2024-01-07T05:25:52;5.73;;;3.93;;
16735;SDS011;17990;49.548;9.730;2024-01-07T05:28:18;7.83;;;4.20;;
16735;SDS011;17990;49.548;9.730;2024-01-07T05:30:46;6.60;;;4.23;;
16735;SDS011;17990;49.548;9.730;2024-01-07T05:33:14;5.93;;;3.33;;
16735;SDS011;17990;49.548;9.730;2024-01-07T05:35:40;6.43;;;3.53;;
16735;SDS011;17990;49.548;9.730;2024-01-07T05:38:07;5.73;;;3.70;;
16735;SDS011;17990;49.548;9.730;2024-01-07T05:40:34;6.80;;;3.90;;
16735;SDS011;17990;49.548;9.730;2024-01-07T05:43:01;5.63;;;3.83;;
16735;SDS011;17990;49.548;9.730;2024-01-07T05:45:27;5.87;;;3.47;;
16735;SDS011;17990;49.548;9.730;2024-01-07T05:47:54;6.00;;;3.80;;
16735;SDS011;17990;49.548;9.730;2024-01-07T05:50:22;5.70;;;3.57;;
16735;SDS011;17990;49.548;9.730;2024-01-07T05:52:49;7.80;;;4.40;;
16735;SDS011;17990;49.548;9.730;2024-01-07T05:55:15;6.43;;;3.97;;
16735;SDS011;17990;49.548;9.730;2024-01-07T05:57:42;6.07;;;3.80;;
16735;SDS011;17990;49.548;9.730;2024-01-07T06:00:10;6.40;;;3.70;;
16735;SDS011;17990;49.548;9.730;2024-01-07T06:02:38;6.43;;;3.80;;
16735;SDS011;17990;49.548;9.730;2024-01-07T06:05:05;5.80;;;3.77;;
16735;SDS011;17990;49.548;9.730;2024-01-07T06:07:33;6.90;;;3.90;;
16735;SDS011;17990;49.548;9.730;2024-01-07T06:10:00;6.03;;;3.70;;
16735;SDS011;17990;49.548;9.730;2024-01-07T06:12:27;5.50;;;3.50;;
16735;SDS011;17990;49.548;9.730;2024-01-07T06:14:54;6.77;;;4.03;;
16735;SDS011;17990;49.548;9.730;2024-01-07T06:17:20;5.13;;;3.50;;
16735;SDS011;17990;49.548;9.730;2024-01-07T06:19:47;4.13;;;3.00;;
16735;SDS011;17990;49.548;9.730;2024-01-07T06:22:14;5.17;;;3.60;;
16735;SDS011;17990;49.548;9.730;2024-01-07T06:24:42;6.80;;;3.40;;
16735;SDS011;17990;49.548;9.730;2024-01-07T06:27:09;5.30;;;3.10;;
16735;SDS011;17990;49.548;9.730;2024-01-07T06:29:35;5.87;;;3.10;;
16735;SDS011;17990;49.548;9.730;2024-01-07T06:32:02;4.43;;;2.70;;
16735;SDS011;17990;49.548;9.730;2024-01-07T06:34:29;4.63;;;2.93;;
16735;SDS011;17990;49.548;9.730;2024-01-07T06:36:57;5.40;;;3.57;;
16735;SDS011;17990;49.548;9.730;2024-01-07T06:39:24;3.90;;;2.83;;
16735;SDS011;17990;49.548;9.730;2024-01-07T06:41:53;6.60;;;3.30;;
16735;SDS011;17990;49.548;9.730;2024-01-07T06:44:20;5.23;;;2.50;;
16735;SDS011;17990;49.548;9.730;2024-01-07T06:46:46;4.83;;;2.87;;
16735;SDS011;17990;49.548;9.730;2024-01-07T06:49:13;3.93;;;2.83;;
16735;SDS011;17990;49.548;9.730;2024-01-07T06:51:40;4.57;;;3.00;;
16735;SDS011;17990;49.548;9.730;2024-01-07T06:54:07;5.93;;;2.87;;
16735;SDS011;17990;49.548;9.730;2024-01-07T06:56:33;4.43;;;2.80;;
16735;SDS011;17990;49.548;9.730;2024-01-07T06:59:01;3.83;;;2.70;;
16735;SDS011;17990;49.548;9.730;2024-01-07T07:01:28;4.30;;;2.77;;
16735;SDS011;17990;49.548;9.730;2024-01-07T07:03:55;4.03;;;2.77;;
16735;SDS011;17990;49.548;9.730;2024-01-07T07:06:22;4.97;;;2.77;;
16735;SDS011;17990;49.548;9.730;2024-01-07T07:08:49;4.33;;;3.10;;
16735;SDS011;17990;49.548;9.730;2024-01-07T07:11:16;4.00;;;2.80;;
16735;SDS011;17990;49.548;9.730;2024-01-07T07:13:43;4.00;;;2.60;;
16735;SDS011;17990;49.548;9.730;2024-01-07T07:16:11;6.43;;;4.17;;
16735;SDS011;17990;49.548;9.730;2024-01-07T07:18:38;4.70;;;3.07;;
16735;SDS011;17990;49.548;9.730;2024-01-07T07:21:04;4.37;;;3.03;;
16735;SDS011;17990;49.548;9.730;2024-01-07T07:23:31;5.17;;;2.93;;
16735;SDS011;17990;49.548;9.730;2024-01-07T07:25:58;4.13;;;3.10;;
16735;SDS011;17990;49.548;9.730;2024-01-07T07:28:25;3.83;;;2.70;;
16735;SDS011;17990;49.548;9.730;2024-01-07T07:30:51;4.73;;;2.90;;
16735;SDS011;17990;49.548;9.730;2024-01-07T07:33:20;4.43;;;2.80;;
16735;SDS011;17990;49.548;9.730;2024-01-07T07:35:46;4.07;;;2.70;;
16735;SDS011;17990;49.548;9.730;2024-01-07T07:38:13;4.37;;;3.03;;
16735;SDS011;17990;49.548;9.730;2024-01-07T07:40:40;4.63;;;2.87;;
16735;SDS011;17990;49.548;9.730;2024-01-07T07:43:08;4.37;;;2.87;;
16735;SDS011;17990;49.548;9.730;2024-01-07T07:45:34;4.50;;;3.17;;
16735;SDS011;17990;49.548;9.730;2024-01-07T07:48:01;5.77;;;3.10;;
16735;SDS011;17990;49.548;9.730;2024-01-07T07:50:29;5.90;;;2.97;;
16735;SDS011;17990;49.548;9.730;2024-01-07T07:52:56;3.77;;;2.73;;
16735;SDS011;17990;49.548;9.730;2024-01-07T07:55:23;4.77;;;3.20;;
16735;SDS011;17990;49.548;9.730;2024-01-07T07:57:49;4.57;;;3.27;;
16735;SDS011;17990;49.548;9.730;2024-01-07T08:00:17;10.27;;;5.77;;
16735;SDS011;17990;49.548;9.730;2024-01-07T08:02:44;4.47;;;2.90;;
16735;SDS011;17990;49.548;9.730;2024-01-07T08:05:11;4.50;;;2.50;;
16735;SDS011;17990;49.548;9.730;2024-01-07T08:07:39;4.60;;;3.57;;
16735;SDS011;17990;49.548;9.730;2024-01-07T08:10:06;5.77;;;4.13;;
16735;SDS011;17990;49.548;9.730;2024-01-07T08:12:34;4.23;;;3.07;;
16735;SDS011;17990;49.548;9.730;2024-01-07T08:15:01;4.70;;;3.10;;
16735;SDS011;17990;49.548;9.730;2024-01-07T08:17:28;5.87;;;3.30;;
16735;SDS011;17990;49.548;9.730;2024-01-07T08:19:55;4.73;;;2.60;;
16735;SDS011;17990;49.548;9.730;2024-01-07T08:22:21;3.63;;;2.50;;
16735;SDS011;17990;49.548;9.730;2024-01-07T08:24:50;4.73;;;3.00;;
16735;SDS011;17990;49.548;9.730;2024-01-07T08:27:16;4.00;;;2.83;;
16735;SDS011;17990;49.548;9.730;2024-01-07T08:29:43;3.93;;;2.40;;
16735;SDS011;17990;49.548;9.730;2024-01-07T08:32:10;4.13;;;2.67;;
16735;SDS011;17990;49.548;9.730;2024-01-07T08:34:37;3.67;;;2.33;;
16735;SDS011;17990;49.548;9.730;2024-01-07T08:37:04;5.57;;;2.50;;
16735;SDS011;17990;49.548;9.730;2024-01-07T08:39:31;4.17;;;2.67;;
16735;SDS011;17990;49.548;9.730;2024-01-07T08:41:59;4.60;;;2.93;;
16735;SDS011;17990;49.548;9.730;2024-01-07T08:44:25;3.70;;;2.53;;
16735;SDS011;17990;49.548;9.730;2024-01-07T08:46:52;5.40;;;3.43;;
16735;SDS011;17990;49.548;9.730;2024-01-07T08:49:19;4.37;;;2.90;;
16735;SDS011;17990;49.548;9.730;2024-01-07T08:51:46;3.20;;;2.40;;
16735;SDS011;17990;49.548;9.730;2024-01-07T08:54:13;3.93;;;2.70;;
16735;SDS011;17990;49.548;9.730;2024-01-07T08:56:39;3.87;;;2.80;;
16735;SDS011;17990;49.548;9.730;2024-01-07T08:59:07;3.30;;;2.23;;
16735;SDS011;17990;49.548;9.730;2024-01-07T09:01:35;3.93;;;2.53;;
16735;SDS011;17990;49.548;9.730;2024-01-07T09:04:00;3.97;;;2.97;;
16735;SDS011;17990;49.548;9.730;2024-01-07T09:06:27;4.83;;;3.50;;
16735;SDS011;17990;49.548;9.730;2024-01-07T09:08:55;3.63;;;2.40;;
16735;SDS011;17990;49.548;9.730;2024-01-07T09:11:22;4.37;;;2.30;;
16735;SDS011;17990;49.548;9.730;2024-01-07T09:13:49;4.03;;;2.47;;
16735;SDS011;17990;49.548;9.730;2024-01-07T09:16:17;3.20;;;2.30;;
16735;SDS011;17990;49.548;9.730;2024-01-07T09:18:44;4.20;;;2.70;;
16735;SDS011;17990;49.548;9.730;2024-01-07T09:21:11;2.87;;;2.20;;
16735;SDS011;17990;49.548;9.730;2024-01-07T09:23:39;3.23;;;2.50;;
16735;SDS011;17990;49.548;9.730;2024-01-07T09:26:06;4.83;;;3.20;;
16735;SDS011;17990;49.548;9.730;2024-01-07T09:28:33;3.50;;;2.80;;
16735;SDS011;17990;49.548;9.730;2024-01-07T09:31:00;4.43;;;2.80;;
16735;SDS011;17990;49.548;9.730;2024-01-07T09:33:28;3.97;;;2.57;;
16735;SDS011;17990;49.548;9.730;2024-01-07T09:35:55;3.37;;;2.60;;
16735;SDS011;17990;49.548;9.730;2024-01-07T09:38:22;3.47;;;2.70;;
16735;SDS011;17990;49.548;9.730;2024-01-07T09:40:49;3.67;;;2.83;;
16735;SDS011;17990;49.548;9.730;2024-01-07T09:43:16;4.53;;;2.93;;
16735;SDS011;17990;49.548;9.730;2024-01-07T09:45:45;5.20;;;2.67;;
16735;SDS011;17990;49.548;9.730;2024-01-07T09:48:13;3.43;;;2.57;;
16735;SDS011;17990;49.548;9.730;2024-01-07T09:50:41;4.30;;;2.93;;
16735;SDS011;17990;49.548;9.730;2024-01-07T09:53:09;4.90;;;3.13;;
16735;SDS011;17990;49.548;9.730;2024-01-07T09:55:44;5.73;;;3.07;;
16735;SDS011;17990;49.548;9.730;2024-01-07T09:58:17;4.73;;;3.00;;
16735;SDS011;17990;49.548;9.730;2024-01-07T10:00:44;4.47;;;3.40;;
16735;SDS011;17990;49.548;9.730;2024-01-07T10:03:11;4.60;;;3.43;;
16735;SDS011;17990;49.548;9.730;2024-01-07T10:05:39;4.30;;;2.70;;
16735;SDS011;17990;49.548;9.730;2024-01-07T10:08:07;4.47;;;2.90;;
16735;SDS011;17990;49.548;9.730;2024-01-07T10:10:34;3.77;;;3.03;;
16735;SDS011;17990;49.548;9.730;2024-01-07T10:13:02;3.53;;;2.40;;
16735;SDS011;17990;49.548;9.730;2024-01-07T10:15:28;4.57;;;3.10;;
16735;SDS011;17990;49.548;9.730;2024-01-07T10:18:00;4.60;;;2.80;;
16735;SDS011;17990;49.548;9.730;2024-01-07T10:20:30;4.50;;;3.07;;
16735;SDS011;17990;49.548;9.730;2024-01-07T10:22:57;5.30;;;3.30;;
16735;SDS011;17990;49.548;9.730;2024-01-07T10:25:25;4.13;;;2.87;;
16735;SDS011;17990;49.548;9.730;2024-01-07T10:27:53;5.30;;;3.67;;
16735;SDS011;17990;49.548;9.730;2024-01-07T10:30:19;8.07;;;4.40;;
16735;SDS011;17990;49.548;9.730;2024-01-07T10:32:47;7.97;;;4.27;;
16735;SDS011;17990;49.548;9.730;2024-01-07T10:35:13;5.80;;;3.80;;
16735;SDS011;17990;49.548;9.730;2024-01-07T10:37:44;5.20;;;3.30;;
16735;SDS011;17990;49.548;9.730;2024-01-07T10:40:11;6.27;;;3.20;;
16735;SDS011;17990;49.548;9.730;2024-01-07T10:42:39;4.93;;;3.07;;
16735;SDS011;17990;49.548;9.730;2024-01-07T10:45:08;6.00;;;3.77;;
16735;SDS011;17990;49.548;9.730;2024-01-07T10:47:35;11.50;;;7.10;;
16735;SDS011;17990;49.548;9.730;2024-01-07T10:50:04;6.40;;;4.53;;
16735;SDS011;17990;49.548;9.730;2024-01-07T10:52:32;5.53;;;3.97;;
16735;SDS011;17990;49.548;9.730;2024-01-07T10:55:03;7.00;;;3.73;;
16735;SDS011;17990;49.548;9.730;2024-01-07T10:57:38;6.80;;;4.00;;
16735;SDS011;17990;49.548;9.730;2024-01-07T11:00:11;6.83;;;4.57;;
16735;SDS011;17990;49.548;9.730;2024-01-07T11:02:46;5.07;;;3.57;;
16735;SDS011;17990;49.548;9.730;2024-01-07T11:05:20;6.97;;;4.17;;
16735;SDS011;17990;49.548;9.730;2024-01-07T11:07:55;4.87;;;3.40;;
16735;SDS011;17990;49.548;9.730;2024-01-07T11:10:31;6.23;;;4.03;;
16735;SDS011;17990;49.548;9.730;2024-01-07T11:13:06;5.17;;;3.60;;
16735;SDS011;17990;49.548;9.730;2024-01-07T11:15:51;7.00;;;3.80;;
16735;SDS011;17990;49.548;9.730;2024-01-07T11:18:18;4.73;;;3.57;;
16735;SDS011;17990;49.548;9.730;2024-01-07T11:20:46;5.43;;;3.57;;
16735;SDS011;17990;49.548;9.730;2024-01-07T11:25:59;5.27;;;3.50;;
16735;SDS011;17990;49.548;9.730;2024-01-07T11:28:43;4.03;;;2.80;;
16735;SDS011;17990;49.548;9.730;2024-01-07T11:31:15;6.33;;;3.97;;
16735;SDS011;17990;49.548;9.730;2024-01-07T11:33:43;10.00;;;4.93;;
16735;SDS011;17990;49.548;9.730;2024-01-07T11:36:11;5.67;;;3.77;;
16735;SDS011;17990;49.548;9.730;2024-01-07T11:38:41;4.07;;;3.17;;
16735;SDS011;17990;49.548;9.730;2024-01-07T11:41:09;4.37;;;3.20;;
16735;SDS011;17990;49.548;9.730;2024-01-07T11:43:38;5.30;;;3.30;;
16735;SDS011;17990;49.548;9.730;2024-01-07T11:46:06;6.70;;;3.50;;
16735;SDS011;17990;49.548;9.730;2024-01-07T11:48:33;5.83;;;3.63;;
16735;SDS011;17990;49.548;9.730;2024-01-07T11:50:59;5.33;;;3.30;;
16735;SDS011;17990;49.548;9.730;2024-01-07T11:53:26;6.03;;;4.10;;
16735;SDS011;17990;49.548;9.730;2024-01-07T11:55:54;5.87;;;3.50;;
16735;SDS011;17990;49.548;9.730;2024-01-07T11:58:20;4.57;;;3.10;;
16735;SDS011;17990;49.548;9.730;2024-01-07T12:00:47;5.10;;;3.43;;
16735;SDS011;17990;49.548;9.730;2024-01-07T12:03:16;5.00;;;3.50;;
16735;SDS011;17990;49.548;9.730;2024-01-07T12:05:43;4.47;;;3.00;;
16735;SDS011;17990;49.548;9.730;2024-01-07T12:08:10;5.83;;;3.17;;
16735;SDS011;17990;49.548;9.730;2024-01-07T12:10:37;4.73;;;2.90;;
16735;SDS011;17990;49.548;9.730;2024-01-07T12:13:04;7.47;;;3.87;;
16735;SDS011;17990;49.548;9.730;2024-01-07T12:15:31;5.67;;;4.00;;
16735;SDS011;17990;49.548;9.730;2024-01-07T12:17:59;6.00;;;3.60;;
16735;SDS011;17990;49.548;9.730;2024-01-07T12:20:27;9.23;;;4.67;;
16735;SDS011;17990;49.548;9.730;2024-01-07T12:22:57;6.07;;;3.87;;
16735;SDS011;17990;49.548;9.730;2024-01-07T12:25:31;5.17;;;3.53;;
16735;SDS011;17990;49.548;9.730;2024-01-07T12:27:58;6.40;;;3.73;;
16735;SDS011;17990;49.548;9.730;2024-01-07T12:30:25;5.30;;;3.70;;
16735;SDS011;17990;49.548;9.730;2024-01-07T12:32:52;5.80;;;3.47;;
16735;SDS011;17990;49.548;9.730;2024-01-07T12:35:19;6.93;;;3.80;;
16735;SDS011;17990;49.548;9.730;2024-01-07T12:37:48;5.77;;;3.30;;
16735;SDS011;17990;49.548;9.730;2024-01-07T12:40:15;5.67;;;3.43;;
16735;SDS011;17990;49.548;9.730;2024-01-07T12:42:42;5.10;;;3.40;;
16735;SDS011;17990;49.548;9.730;2024-01-07T12:45:11;6.27;;;3.47;;
16735;SDS011;17990;49.548;9.730;2024-01-07T12:47:39;4.50;;;2.63;;
16735;SDS011;17990;49.548;9.730;2024-01-07T12:50:06;5.07;;;3.17;;
16735;SDS011;17990;49.548;9.730;2024-01-07T12:52:34;5.63;;;3.30;;
16735;SDS011;17990;49.548;9.730;2024-01-07T12:55:04;4.53;;;2.93;;
16735;SDS011;17990;49.548;9.730;2024-01-07T12:57:31;5.27;;;3.27;;
16735;SDS011;17990;49.548;9.730;2024-01-07T12:59:58;5.10;;;2.93;;
16735;SDS011;17990;49.548;9.730;2024-01-07T13:02:25;7.00;;;3.50;;
16735;SDS011;17990;49.548;9.730;2024-01-07T13:04:53;6.90;;;3.80;;
16735;SDS011;17990;49.548;9.730;2024-01-07T13:07:20;4.07;;;2.77;;
16735;SDS011;17990;49.548;9.730;2024-01-07T13:09:48;5.27;;;3.40;;
16735;SDS011;17990;49.548;9.730;2024-01-07T13:12:16;5.70;;;3.50;;
16735;SDS011;17990;49.548;9.730;2024-01-07T13:14:43;8.57;;;3.87;;
16735;SDS011;17990;49.548;9.730;2024-01-07T13:17:12;6.63;;;3.50;;
16735;SDS011;17990;49.548;9.730;2024-01-07T13:19:38;4.80;;;3.20;;
16735;SDS011;17990;49.548;9.730;2024-01-07T13:22:05;5.00;;;3.10;;
16735;SDS011;17990;49.548;9.730;2024-01-07T13:24:32;5.63;;;3.00;;
16735;SDS011;17990;49.548;9.730;2024-01-07T13:26:59;5.10;;;3.20;;
16735;SDS011;17990;49.548;9.730;2024-01-07T13:29:27;6.00;;;3.37;;
16735;SDS011;17990;49.548;9.730;2024-01-07T13:31:53;5.53;;;2.93;;
16735;SDS011;17990;49.548;9.730;2024-01-07T13:34:20;5.57;;;3.50;;
16735;SDS011;17990;49.548;9.730;2024-01-07T13:36:47;6.93;;;3.07;;
16735;SDS011;17990;49.548;9.730;2024-01-07T13:39:14;6.60;;;3.40;;
16735;SDS011;17990;49.548;9.730;2024-01-07T13:41:41;6.90;;;3.53;;
16735;SDS011;17990;49.548;9.730;2024-01-07T13:44:09;6.23;;;3.40;;
16735;SDS011;17990;49.548;9.730;2024-01-07T13:46:43;6.97;;;4.10;;
16735;SDS011;17990;49.548;9.730;2024-01-07T13:49:11;6.67;;;4.03;;
16735;SDS011;17990;49.548;9.730;2024-01-07T13:51:38;6.87;;;3.90;;
16735;SDS011;17990;49.548;9.730;2024-01-07T13:54:05;6.07;;;3.63;;
16735;SDS011;17990;49.548;9.730;2024-01-07T13:56:32;6.07;;;4.13;;
16735;SDS011;17990;49.548;9.730;2024-01-07T13:59:00;6.63;;;3.87;;
16735;SDS011;17990;49.548;9.730;2024-01-07T14:01:28;7.70;;;3.50;;
16735;SDS011;17990;49.548;9.730;2024-01-07T14:03:56;7.03;;;3.97;;
16735;SDS011;17990;49.548;9.730;2024-01-07T14:06:23;6.30;;;3.27;;
16735;SDS011;17990;49.548;9.730;2024-01-07T14:08:49;5.87;;;3.37;;
16735;SDS011;17990;49.548;9.730;2024-01-07T14:11:17;6.20;;;3.37;;
16735;SDS011;17990;49.548;9.730;2024-01-07T14:13:43;10.27;;;5.13;;
16735;SDS011;17990;49.548;9.730;2024-01-07T14:16:11;7.47;;;3.90;;
16735;SDS011;17990;49.548;9.730;2024-01-07T14:18:38;5.83;;;3.37;;
16735;SDS011;17990;49.548;9.730;2024-01-07T14:21:06;5.30;;;2.77;;
16735;SDS011;17990;49.548;9.730;2024-01-07T14:23:34;7.03;;;3.97;;
16735;SDS011;17990;49.548;9.730;2024-01-07T14:26:01;9.80;;;3.80;;
16735;SDS011;17990;49.548;9.730;2024-01-07T14:28:28;4.73;;;2.63;;
16735;SDS011;17990;49.548;9.730;2024-01-07T14:30:55;5.40;;;3.00;;
16735;SDS011;17990;49.548;9.730;2024-01-07T14:33:23;7.73;;;3.97;;
16735;SDS011;17990;49.548;9.730;2024-01-07T14:35:49;7.00;;;3.07;;
16735;SDS011;17990;49.548;9.730;2024-01-07T14:38:17;5.60;;;3.57;;
16735;SDS011;17990;49.548;9.730;2024-01-07T14:40:44;5.93;;;3.50;;
16735;SDS011;17990;49.548;9.730;2024-01-07T14:43:11;4.43;;;2.60;;
16735;SDS011;17990;49.548;9.730;2024-01-07T14:45:38;4.07;;;2.50;;
16735;SDS011;17990;49.548;9.730;2024-01-07T14:48:05;5.27;;;3.20;;